sensor_id;sensor_type;location;lat;lon;timestamp;pressure;altitude;pressure_sealevel;temperature;humidity
57606;BME280;43430;48.204;11.556;2023-05-21T00:01:02;95609.22;;;14.89;100.00
57606;BME280;43430;48.204;11.556;2023-05-21T00:03:30;95608.19;;;14.90;100.00
57606;BME280;43430;48.204;11.556;2023-05-21T00:05:55;95606.03;;;14.87;100.00
57606;BME280;43430;48.204;11.556;2023-05-21T00:08:21;95599.94;;;14.92;100.00
57606;BME280;43430;48.204;11.556;2023-05-21T00:10:47;95602.59;;;14.92;100.00
57606;BME280;43430;48.204;11.556;2023-05-21T00:13:12;95604.97;;;14.88;100.00
57606;BME280;43430;48.204;11.556;2023-05-21T00:15:38;95593.00;;;14.81;100.00
57606;BME280;43430;48.204;11.556;2023-05-21T00:18:03;95595.38;;;14.82;100.00
57606;BME280;43430;48.204;11.556;2023-05-21T00:20:29;95595.09;;;14.79;100.00
57606;BME280;43430;48.204;11.556;2023-05-21T00:22:57;95590.56;;;14.74;100.00
57606;BME280;43430;48.204;11.556;2023-05-21T00:25:22;95587.88;;;14.69;100.00
57606;BME280;43430;48.204;11.556;2023-05-21T00:27:47;95590.78;;;14.67;100.00
57606;BME280;43430;48.204;11.556;2023-05-21T00:30:13;95582.28;;;14.65;100.00
57606;BME280;43430;48.204;11.556;2023-05-21T00:32:39;95588.63;;;14.59;100.00
57606;BME280;43430;48.204;11.556;2023-05-21T00:35:05;95581.19;;;14.56;100.00
57606;BME280;43430;48.204;11.556;2023-05-21T00:37:30;95583.28;;;14.54;100.00
57606;BME280;43430;48.204;11.556;2023-05-21T00:39:58;95586.13;;;14.47;100.00
57606;BME280;43430;48.204;11.556;2023-05-21T00:42:23;95583.19;;;14.44;100.00
57606;BME280;43430;48.204;11.556;2023-05-21T00:44:54;95581.81;;;14.41;100.00
57606;BME280;43430;48.204;11.556;2023-05-21T00:47:20;95583.66;;;14.36;100.00
57606;BME280;43430;48.204;11.556;2023-05-21T00:49:46;95581.81;;;14.36;100.00
57606;BME280;43430;48.204;11.556;2023-05-21T00:52:13;95574.09;;;14.35;100.00
57606;BME280;43430;48.204;11.556;2023-05-21T00:54:39;95571.44;;;14.35;100.00
57606;BME280;43430;48.204;11.556;2023-05-21T00:57:05;95578.31;;;14.31;100.00
57606;BME280;43430;48.204;11.556;2023-05-21T00:59:31;95574.88;;;14.30;100.00
57606;BME280;43430;48.204;11.556;2023-05-21T01:01:57;95573.50;;;14.22;100.00
57606;BME280;43430;48.204;11.556;2023-05-21T01:04:28;95566.59;;;14.21;100.00
57606;BME280;43430;48.204;11.556;2023-05-21T01:06:54;95566.63;;;14.27;100.00
57606;BME280;43430;48.204;11.556;2023-05-21T01:09:20;95567.75;;;14.36;100.00
57606;BME280;43430;48.204;11.556;2023-05-21T01:11:48;95563.75;;;14.33;100.00
57606;BME280;43430;48.204;11.556;2023-05-21T01:14:15;95564.59;;;14.39;100.00
57606;BME280;43430;48.204;11.556;2023-05-21T01:16:42;95560.59;;;14.36;100.00
57606;BME280;43430;48.204;11.556;2023-05-21T01:19:14;95562.44;;;14.36;100.00
57606;BME280;43430;48.204;11.556;2023-05-21T01:21:43;95560.53;;;14.31;100.00
57606;BME280;43430;48.204;11.556;2023-05-21T01:24:09;95556.00;;;14.27;100.00
57606;BME280;43430;48.204;11.556;2023-05-21T01:26:34;95561.59;;;14.25;100.00
57606;BME280;43430;48.204;11.556;2023-05-21T01:29:06;95560.75;;;14.24;100.00
57606;BME280;43430;48.204;11.556;2023-05-21T01:34:25;95564.97;;;14.20;100.00
57606;BME280;43430;48.204;11.556;2023-05-21T01:39:43;95556.72;;;14.12;100.00
57606;BME280;43430;48.204;11.556;2023-05-21T01:42:09;95550.56;;;14.06;100.00
57606;BME280;43430;48.204;11.556;2023-05-21T01:44:36;95551.63;;;14.05;100.00
57606;BME280;43430;48.204;11.556;2023-05-21T01:47:02;95549.97;;;13.99;100.00
57606;BME280;43430;48.204;11.556;2023-05-21T01:49:29;95557.91;;;13.94;100.00
57606;BME280;43430;48.204;11.556;2023-05-21T01:51:54;95550.75;;;13.94;100.00
57606;BME280;43430;48.204;11.556;2023-05-21T01:54:20;95544.66;;;13.94;100.00
57606;BME280;43430;48.204;11.556;2023-05-21T01:56:46;95546.75;;;13.92;100.00
57606;BME280;43430;48.204;11.556;2023-05-21T01:59:12;95543.78;;;13.88;100.00
57606;BME280;43430;48.204;11.556;2023-05-21T02:01:37;95534.25;;;13.87;100.00
57606;BME280;43430;48.204;11.556;2023-05-21T02:04:02;95543.25;;;13.86;100.00
57606;BME280;43430;48.204;11.556;2023-05-21T02:06:28;95548.25;;;13.83;100.00
57606;BME280;43430;48.204;11.556;2023-05-21T02:08:53;95554.03;;;13.80;100.00
57606;BME280;43430;48.204;11.556;2023-05-21T02:11:19;95545.84;;;13.81;100.00
57606;BME280;43430;48.204;11.556;2023-05-21T02:13:44;95542.91;;;13.77;100.00
57606;BME280;43430;48.204;11.556;2023-05-21T02:16:11;95541.84;;;13.78;100.00
57606;BME280;43430;48.204;11.556;2023-05-21T02:18:39;95544.00;;;13.82;100.00
57606;BME280;43430;48.204;11.556;2023-05-21T02:21:06;95545.81;;;13.76;100.00
57606;BME280;43430;48.204;11.556;2023-05-21T02:23:31;95542.63;;;13.74;100.00
57606;BME280;43430;48.204;11.556;2023-05-21T02:25:57;95540.22;;;13.72;100.00
57606;BME280;43430;48.204;11.556;2023-05-21T02:28:22;95542.06;;;13.72;100.00
57606;BME280;43430;48.204;11.556;2023-05-21T02:30:48;95538.88;;;13.70;100.00
57606;BME280;43430;48.204;11.556;2023-05-21T02:33:15;95541.25;;;13.66;100.00
57606;BME280;43430;48.204;11.556;2023-05-21T02:35:40;95538.28;;;13.63;100.00
57606;BME280;43430;48.204;11.556;2023-05-21T02:38:06;95533.78;;;13.63;100.00
57606;BME280;43430;48.204;11.556;2023-05-21T02:40:33;95537.97;;;13.59;100.00
57606;BME280;43430;48.204;11.556;2023-05-21T02:42:58;95541.66;;;13.58;100.00
57606;BME280;43430;48.204;11.556;2023-05-21T02:45:24;95545.31;;;13.52;100.00
57606;BME280;43430;48.204;11.556;2023-05-21T02:47:49;95552.97;;;13.48;100.00
57606;BME280;43430;48.204;11.556;2023-05-21T02:50:15;95554.78;;;13.43;100.00
57606;BME280;43430;48.204;11.556;2023-05-21T02:52:40;95552.63;;;13.40;100.00
57606;BME280;43430;48.204;11.556;2023-05-21T02:55:06;95553.69;;;13.39;100.00
57606;BME280;43430;48.204;11.556;2023-05-21T02:57:32;95548.88;;;13.36;100.00
57606;BME280;43430;48.204;11.556;2023-05-21T02:59:57;95546.72;;;13.33;100.00
57606;BME280;43430;48.204;11.556;2023-05-21T03:02:22;95548.28;;;13.28;100.00
57606;BME280;43430;48.204;11.556;2023-05-21T03:04:48;95551.81;;;13.17;100.00
57606;BME280;43430;48.204;11.556;2023-05-21T03:07:15;95560.69;;;13.06;100.00
57606;BME280;43430;48.204;11.556;2023-05-21T03:09:44;95556.34;;;12.95;100.00
57606;BME280;43430;48.204;11.556;2023-05-21T03:12:09;95560.75;;;12.89;100.00
57606;BME280;43430;48.204;11.556;2023-05-21T03:14:35;95555.78;;;12.93;100.00
57606;BME280;43430;48.204;11.556;2023-05-21T03:17:01;95548.41;;;12.95;100.00
57606;BME280;43430;48.204;11.556;2023-05-21T03:19:33;95545.25;;;12.98;100.00
57606;BME280;43430;48.204;11.556;2023-05-21T03:22:00;95539.22;;;13.02;100.00
57606;BME280;43430;48.204;11.556;2023-05-21T03:24:27;95540.00;;;13.03;100.00
57606;BME280;43430;48.204;11.556;2023-05-21T03:26:53;95540.81;;;13.03;100.00
57606;BME280;43430;48.204;11.556;2023-05-21T03:29:18;95542.94;;;13.01;100.00
57606;BME280;43430;48.204;11.556;2023-05-21T03:31:44;95543.91;;;12.95;100.00
57606;BME280;43430;48.204;11.556;2023-05-21T03:34:09;95542.53;;;12.93;100.00
57606;BME280;43430;48.204;11.556;2023-05-21T03:36:34;95536.72;;;12.91;100.00
57606;BME280;43430;48.204;11.556;2023-05-21T03:39:00;95537.03;;;12.94;100.00
57606;BME280;43430;48.204;11.556;2023-05-21T03:41:25;95543.41;;;12.98;100.00
57606;BME280;43430;48.204;11.556;2023-05-21T03:43:50;95542.31;;;12.94;100.00
57606;BME280;43430;48.204;11.556;2023-05-21T03:46:16;95540.69;;;12.93;100.00
57606;BME280;43430;48.204;11.556;2023-05-21T03:48:41;95540.47;;;12.95;100.00
57606;BME280;43430;48.204;11.556;2023-05-21T03:51:07;95544.22;;;12.99;100.00
57606;BME280;43430;48.204;11.556;2023-05-21T03:53:34;95539.41;;;12.96;100.00
57606;BME280;43430;48.204;11.556;2023-05-21T03:56:00;95543.59;;;12.92;100.00
57606;BME280;43430;48.204;11.556;2023-05-21T03:58:25;95535.09;;;12.90;100.00
57606;BME280;43430;48.204;11.556;2023-05-21T04:00:50;95544.56;;;12.86;100.00
57606;BME280;43430;48.204;11.556;2023-05-21T04:03:16;95541.41;;;12.83;100.00
57606;BME280;43430;48.204;11.556;2023-05-21T04:05:42;95547.00;;;12.87;100.00
57606;BME280;43430;48.204;11.556;2023-05-21T04:08:08;95539.59;;;12.89;100.00
57606;BME280;43430;48.204;11.556;2023-05-21T04:10:33;95545.19;;;12.93;100.00
57606;BME280;43430;48.204;11.556;2023-05-21T04:12:58;95540.69;;;12.93;100.00
57606;BME280;43430;48.204;11.556;2023-05-21T04:15:24;95547.91;;;12.98;100.00
57606;BME280;43430;48.204;11.556;2023-05-21T04:17:49;95554.31;;;13.02;100.00
57606;BME280;43430;48.204;11.556;2023-05-21T04:20:16;95543.72;;;13.02;100.00
57606;BME280;43430;48.204;11.556;2023-05-21T04:22:42;95548.53;;;13.05;100.00
57606;BME280;43430;48.204;11.556;2023-05-21T04:25:08;95550.91;;;13.06;100.00
57606;BME280;43430;48.204;11.556;2023-05-21T04:27:34;95551.47;;;13.09;100.00
57606;BME280;43430;48.204;11.556;2023-05-21T04:29:59;95549.63;;;13.09;100.00
57606;BME280;43430;48.204;11.556;2023-05-21T04:32:24;95545.91;;;13.10;100.00
57606;BME280;43430;48.204;11.556;2023-05-21T04:34:50;95555.03;;;13.19;100.00
57606;BME280;43430;48.204;11.556;2023-05-21T04:37:15;95557.97;;;13.23;100.00
57606;BME280;43430;48.204;11.556;2023-05-21T04:39:44;95562.56;;;13.27;100.00
57606;BME280;43430;48.204;11.556;2023-05-21T04:42:09;95550.97;;;13.34;100.00
57606;BME280;43430;48.204;11.556;2023-05-21T04:44:35;95548.41;;;13.39;100.00
57606;BME280;43430;48.204;11.556;2023-05-21T04:47:02;95563.25;;;13.45;100.00
57606;BME280;43430;48.204;11.556;2023-05-21T04:49:27;95558.25;;;13.48;100.00
57606;BME280;43430;48.204;11.556;2023-05-21T04:51:52;95560.19;;;13.53;100.00
57606;BME280;43430;48.204;11.556;2023-05-21T04:54:18;95567.63;;;13.56;100.00
57606;BME280;43430;48.204;11.556;2023-05-21T04:56:43;95563.47;;;13.65;100.00
57606;BME280;43430;48.204;11.556;2023-05-21T04:59:08;95565.38;;;13.70;100.00
57606;BME280;43430;48.204;11.556;2023-05-21T05:01:34;95566.69;;;13.72;100.00
57606;BME280;43430;48.204;11.556;2023-05-21T05:04:02;95563.56;;;13.75;100.00
57606;BME280;43430;48.204;11.556;2023-05-21T05:06:28;95554.09;;;13.85;100.00
57606;BME280;43430;48.204;11.556;2023-05-21T05:08:53;95561.28;;;13.89;100.00
57606;BME280;43430;48.204;11.556;2023-05-21T05:11:19;95557.31;;;13.87;100.00
57606;BME280;43430;48.204;11.556;2023-05-21T05:13:44;95562.06;;;13.85;100.00
57606;BME280;43430;48.204;11.556;2023-05-21T05:16:10;95561.06;;;13.91;100.00
57606;BME280;43430;48.204;11.556;2023-05-21T05:18:36;95554.19;;;13.95;100.00
57606;BME280;43430;48.204;11.556;2023-05-21T05:21:02;95551.84;;;13.98;100.00
57606;BME280;43430;48.204;11.556;2023-05-21T05:23:27;95549.97;;;13.99;100.00
57606;BME280;43430;48.204;11.556;2023-05-21T05:25:53;95554.81;;;14.07;100.00
57606;BME280;43430;48.204;11.556;2023-05-21T05:28:18;95557.50;;;14.12;100.00
57606;BME280;43430;48.204;11.556;2023-05-21T05:30:43;95561.78;;;14.18;100.00
57606;BME280;43430;48.204;11.556;2023-05-21T05:33:09;95557.59;;;14.28;100.00
57606;BME280;43430;48.204;11.556;2023-05-21T05:35:35;95562.44;;;14.36;100.00
57606;BME280;43430;48.204;11.556;2023-05-21T05:38:00;95553.50;;;14.47;100.00
57606;BME280;43430;48.204;11.556;2023-05-21T05:40:26;95551.91;;;14.46;100.00
57606;BME280;43430;48.204;11.556;2023-05-21T05:42:51;95555.41;;;14.52;100.00
57606;BME280;43430;48.204;11.556;2023-05-21T05:45:17;95555.16;;;14.58;100.00
57606;BME280;43430;48.204;11.556;2023-05-21T05:47:43;95549.06;;;14.53;100.00
57606;BME280;43430;48.204;11.556;2023-05-21T05:50:08;95550.13;;;14.57;100.00
57606;BME280;43430;48.204;11.556;2023-05-21T05:52:34;95552.06;;;14.66;100.00
57606;BME280;43430;48.204;11.556;2023-05-21T05:54:59;95553.94;;;14.76;100.00
57606;BME280;43430;48.204;11.556;2023-05-21T05:57:25;95561.66;;;14.83;100.00
57606;BME280;43430;48.204;11.556;2023-05-21T05:59:50;95564.38;;;14.93;100.00
57606;BME280;43430;48.204;11.556;2023-05-21T06:02:15;95560.69;;;14.94;100.00
57606;BME280;43430;48.204;11.556;2023-05-21T06:04:41;95558.03;;;14.99;100.00
57606;BME280;43430;48.204;11.556;2023-05-21T06:07:06;95554.88;;;15.07;100.00
57606;BME280;43430;48.204;11.556;2023-05-21T06:09:32;95558.34;;;15.08;100.00
57606;BME280;43430;48.204;11.556;2023-05-21T06:11:57;95565.78;;;15.16;100.00
57606;BME280;43430;48.204;11.556;2023-05-21T06:14:22;95557.03;;;15.20;100.00
57606;BME280;43430;48.204;11.556;2023-05-21T06:16:48;95561.31;;;15.27;100.00
57606;BME280;43430;48.204;11.556;2023-05-21T06:19:13;95563.47;;;15.35;100.00
57606;BME280;43430;48.204;11.556;2023-05-21T06:21:39;95556.03;;;15.37;100.00
57606;BME280;43430;48.204;11.556;2023-05-21T06:24:04;95551.25;;;15.44;100.00
57606;BME280;43430;48.204;11.556;2023-05-21T06:26:30;95553.94;;;15.54;100.00
57606;BME280;43430;48.204;11.556;2023-05-21T06:28:55;95555.03;;;15.63;100.00
57606;BME280;43430;48.204;11.556;2023-05-21T06:31:21;95543.91;;;15.82;100.00
57606;BME280;43430;48.204;11.556;2023-05-21T06:33:47;95537.00;;;15.86;100.00
57606;BME280;43430;48.204;11.556;2023-05-21T06:36:13;95538.34;;;16.04;100.00
57606;BME280;43430;48.204;11.556;2023-05-21T06:38:39;95541.25;;;16.23;100.00
57606;BME280;43430;48.204;11.556;2023-05-21T06:41:05;95539.09;;;16.40;100.00
57606;BME280;43430;48.204;11.556;2023-05-21T06:43:30;95535.34;;;16.46;100.00
57606;BME280;43430;48.204;11.556;2023-05-21T06:45:56;95526.81;;;16.59;100.00
57606;BME280;43430;48.204;11.556;2023-05-21T06:48:21;95532.63;;;16.72;100.00
57606;BME280;43430;48.204;11.556;2023-05-21T06:50:47;95531.53;;;16.88;100.00
57606;BME280;43430;48.204;11.556;2023-05-21T06:53:12;95534.94;;;17.04;100.00
57606;BME280;43430;48.204;11.556;2023-05-21T06:55:40;95536.16;;;17.27;100.00
57606;BME280;43430;48.204;11.556;2023-05-21T06:58:09;95536.63;;;17.39;100.00
57606;BME280;43430;48.204;11.556;2023-05-21T07:00:34;95521.38;;;17.50;100.00
57606;BME280;43430;48.204;11.556;2023-05-21T07:03:00;95524.69;;;17.71;100.00
57606;BME280;43430;48.204;11.556;2023-05-21T07:05:25;95528.41;;;17.80;100.00
57606;BME280;43430;48.204;11.556;2023-05-21T07:07:50;95524.56;;;17.91;100.00
57606;BME280;43430;48.204;11.556;2023-05-21T07:10:16;95526.38;;;18.01;100.00
57606;BME280;43430;48.204;11.556;2023-05-21T07:12:41;95521.03;;;18.01;100.00
57606;BME280;43430;48.204;11.556;2023-05-21T07:15:07;95521.50;;;18.08;100.00
57606;BME280;43430;48.204;11.556;2023-05-21T07:17:33;95520.88;;;18.21;100.00
57606;BME280;43430;48.204;11.556;2023-05-21T07:19:58;95518.13;;;18.26;100.00
57606;BME280;43430;48.204;11.556;2023-05-21T07:22:23;95515.19;;;18.28;100.00
57606;BME280;43430;48.204;11.556;2023-05-21T07:24:49;95513.84;;;18.31;100.00
57606;BME280;43430;48.204;11.556;2023-05-21T07:27:14;95522.81;;;18.40;100.00
57606;BME280;43430;48.204;11.556;2023-05-21T07:29:39;95516.81;;;18.53;100.00
57606;BME280;43430;48.204;11.556;2023-05-21T07:32:05;95517.28;;;18.60;100.00
57606;BME280;43430;48.204;11.556;2023-05-21T07:34:30;95520.63;;;18.71;100.00
57606;BME280;43430;48.204;11.556;2023-05-21T07:36:57;95520.91;;;18.69;100.00
57606;BME280;43430;48.204;11.556;2023-05-21T07:39:22;95524.38;;;18.70;100.00
57606;BME280;43430;48.204;11.556;2023-05-21T07:41:47;95521.25;;;18.63;100.00
57606;BME280;43430;48.204;11.556;2023-05-21T07:44:13;95521.59;;;18.56;100.00
57606;BME280;43430;48.204;11.556;2023-05-21T07:46:38;95527.19;;;18.55;100.00
57606;BME280;43430;48.204;11.556;2023-05-21T07:49:03;95526.19;;;18.50;100.00
57606;BME280;43430;48.204;11.556;2023-05-21T07:51:29;95523.63;;;18.64;100.00
57606;BME280;43430;48.204;11.556;2023-05-21T07:53:55;95515.84;;;18.73;100.00
57606;BME280;43430;48.204;11.556;2023-05-21T07:56:20;95513.66;;;18.75;100.00
57606;BME280;43430;48.204;11.556;2023-05-21T07:58:45;95519.06;;;18.65;100.00
57606;BME280;43430;48.204;11.556;2023-05-21T08:01:11;95525.97;;;18.71;100.00
57606;BME280;43430;48.204;11.556;2023-05-21T08:03:36;95517.47;;;18.69;100.00
57606;BME280;43430;48.204;11.556;2023-05-21T08:06:02;95536.72;;;18.66;100.00
57606;BME280;43430;48.204;11.556;2023-05-21T08:08:27;95538.94;;;18.59;100.00
57606;BME280;43430;48.204;11.556;2023-05-21T08:10:53;95538.78;;;18.45;100.00
57606;BME280;43430;48.204;11.556;2023-05-21T08:13:18;95540.63;;;18.49;100.00
57606;BME280;43430;48.204;11.556;2023-05-21T08:15:43;95533.72;;;18.43;100.00
57606;BME280;43430;48.204;11.556;2023-05-21T08:18:09;95536.34;;;18.48;100.00
57606;BME280;43430;48.204;11.556;2023-05-21T08:20:36;95535.84;;;18.46;100.00
57606;BME280;43430;48.204;11.556;2023-05-21T08:23:02;95544.81;;;18.56;100.00
57606;BME280;43430;48.204;11.556;2023-05-21T08:25:28;95548.44;;;18.65;100.00
57606;BME280;43430;48.204;11.556;2023-05-21T08:27:53;95537.44;;;18.77;100.00
57606;BME280;43430;48.204;11.556;2023-05-21T08:30:19;95548.41;;;18.70;100.00
57606;BME280;43430;48.204;11.556;2023-05-21T08:32:45;95555.81;;;18.78;100.00
57606;BME280;43430;48.204;11.556;2023-05-21T08:35:11;95550.72;;;18.82;100.00
57606;BME280;43430;48.204;11.556;2023-05-21T08:37:36;95554.13;;;18.87;100.00
57606;BME280;43430;48.204;11.556;2023-05-21T08:40:02;95551.47;;;18.87;100.00
57606;BME280;43430;48.204;11.556;2023-05-21T08:44:58;95548.44;;;18.94;100.00
57606;BME280;43430;48.204;11.556;2023-05-21T08:47:26;95547.88;;;18.97;100.00
57606;BME280;43430;48.204;11.556;2023-05-21T08:49:53;95549.69;;;19.02;100.00
57606;BME280;43430;48.204;11.556;2023-05-21T08:52:19;95542.69;;;19.06;100.00
57606;BME280;43430;48.204;11.556;2023-05-21T08:54:45;95549.06;;;19.10;100.00
57606;BME280;43430;48.204;11.556;2023-05-21T08:57:12;95547.13;;;19.15;100.00
57606;BME280;43430;48.204;11.556;2023-05-21T08:59:39;95550.22;;;19.23;100.00
57606;BME280;43430;48.204;11.556;2023-05-21T09:02:10;95545.56;;;19.33;100.00
57606;BME280;43430;48.204;11.556;2023-05-21T09:04:38;95547.09;;;19.39;100.00
57606;BME280;43430;48.204;11.556;2023-05-21T09:07:08;95547.53;;;19.47;100.00
57606;BME280;43430;48.204;11.556;2023-05-21T09:09:40;95544.91;;;19.60;100.00
57606;BME280;43430;48.204;11.556;2023-05-21T09:12:09;95542.88;;;19.76;100.00
57606;BME280;43430;48.204;11.556;2023-05-21T09:14:36;95546.44;;;19.85;100.00
57606;BME280;43430;48.204;11.556;2023-05-21T09:17:02;95544.81;;;19.89;100.00
57606;BME280;43430;48.204;11.556;2023-05-21T09:19:27;95545.50;;;19.95;100.00
57606;BME280;43430;48.204;11.556;2023-05-21T09:22:00;95544.03;;;20.22;100.00
57606;BME280;43430;48.204;11.556;2023-05-21T09:24:29;95536.44;;;20.43;100.00
57606;BME280;43430;48.204;11.556;2023-05-21T09:26:58;95538.56;;;20.59;100.00
57606;BME280;43430;48.204;11.556;2023-05-21T09:29:25;95538.78;;;20.77;100.00
57606;BME280;43430;48.204;11.556;2023-05-21T09:31:51;95533.53;;;20.85;100.00
57606;BME280;43430;48.204;11.556;2023-05-21T09:34:18;95531.06;;;20.89;100.00
57606;BME280;43430;48.204;11.556;2023-05-21T09:36:44;95536.22;;;20.99;100.00
57606;BME280;43430;48.204;11.556;2023-05-21T09:39:10;95535.59;;;21.02;100.00
57606;BME280;43430;48.204;11.556;2023-05-21T09:41:41;95530.66;;;21.23;100.00
57606;BME280;43430;48.204;11.556;2023-05-21T09:44:06;95531.44;;;21.24;100.00
57606;BME280;43430;48.204;11.556;2023-05-21T09:46:38;95523.78;;;21.45;100.00
57606;BME280;43430;48.204;11.556;2023-05-21T09:49:04;95526.53;;;21.53;100.00
57606;BME280;43430;48.204;11.556;2023-05-21T09:51:29;95519.47;;;21.58;100.00
57606;BME280;43430;48.204;11.556;2023-05-21T09:53:56;95517.34;;;21.68;100.00
57606;BME280;43430;48.204;11.556;2023-05-21T09:56:22;95528.50;;;21.84;100.00
57606;BME280;43430;48.204;11.556;2023-05-21T09:58:51;95516.47;;;21.81;100.00
57606;BME280;43430;48.204;11.556;2023-05-21T10:01:19;95511.00;;;21.87;100.00
57606;BME280;43430;48.204;11.556;2023-05-21T10:03:49;95527.13;;;21.87;100.00
57606;BME280;43430;48.204;11.556;2023-05-21T10:06:16;95522.34;;;21.84;100.00
57606;BME280;43430;48.204;11.556;2023-05-21T10:08:43;95525.53;;;21.86;100.00
57606;BME280;43430;48.204;11.556;2023-05-21T10:11:10;95511.38;;;21.94;100.00
57606;BME280;43430;48.204;11.556;2023-05-21T10:13:40;95513.75;;;21.95;100.00
57606;BME280;43430;48.204;11.556;2023-05-21T10:16:08;95509.91;;;22.10;100.00
57606;BME280;43430;48.204;11.556;2023-05-21T10:18:36;95501.06;;;22.32;100.00
57606;BME280;43430;48.204;11.556;2023-05-21T10:21:02;95490.56;;;22.44;100.00
57606;BME280;43430;48.204;11.556;2023-05-21T10:23:28;95495.38;;;22.65;100.00
57606;BME280;43430;48.204;11.556;2023-05-21T10:25:54;95500.25;;;22.94;94.08
57606;BME280;43430;48.204;11.556;2023-05-21T10:28:21;95495.41;;;23.22;90.97
57606;BME280;43430;48.204;11.556;2023-05-21T10:30:48;95497.34;;;23.48;82.23
57606;BME280;43430;48.204;11.556;2023-05-21T10:33:16;95496.41;;;23.52;78.04
57606;BME280;43430;48.204;11.556;2023-05-21T10:35:43;95503.97;;;23.50;74.52
57606;BME280;43430;48.204;11.556;2023-05-21T10:38:11;95498.13;;;23.39;79.32
57606;BME280;43430;48.204;11.556;2023-05-21T10:40:38;95507.16;;;23.35;74.14
57606;BME280;43430;48.204;11.556;2023-05-21T10:51:54;95494.97;;;23.46;73.59
57606;BME280;43430;48.204;11.556;2023-05-21T10:54:41;95496.88;;;23.54;74.58
57606;BME280;43430;48.204;11.556;2023-05-21T11:00:11;95493.06;;;23.55;75.00
57606;BME280;43430;48.204;11.556;2023-05-21T11:02:37;95488.16;;;23.49;71.26
57606;BME280;43430;48.204;11.556;2023-05-21T11:05:03;95490.84;;;23.49;65.27
57606;BME280;43430;48.204;11.556;2023-05-21T11:07:58;95500.34;;;23.46;66.87
57606;BME280;43430;48.204;11.556;2023-05-21T11:10:38;95489.28;;;23.48;65.96
57606;BME280;43430;48.204;11.556;2023-05-21T11:13:08;95488.81;;;23.54;71.04
57606;BME280;43430;48.204;11.556;2023-05-21T11:21:12;95497.22;;;23.70;60.47
57606;BME280;43430;48.204;11.556;2023-05-21T11:26:19;95498.50;;;23.73;57.57
57606;BME280;43430;48.204;11.556;2023-05-21T11:31:30;95495.31;;;23.71;59.54
57606;BME280;43430;48.204;11.556;2023-05-21T11:34:17;95493.56;;;23.83;63.69
57606;BME280;43430;48.204;11.556;2023-05-21T11:36:44;95486.13;;;23.89;71.97
57606;BME280;43430;48.204;11.556;2023-05-21T11:39:13;95488.19;;;23.92;76.14
57606;BME280;43430;48.204;11.556;2023-05-21T11:44:17;95485.81;;;23.82;75.85
57606;BME280;43430;48.204;11.556;2023-05-21T11:46:43;95479.66;;;23.81;70.48
57606;BME280;43430;48.204;11.556;2023-05-21T11:49:08;95484.06;;;23.77;71.28
57606;BME280;43430;48.204;11.556;2023-05-21T11:51:35;95481.06;;;23.96;73.63
57606;BME280;43430;48.204;11.556;2023-05-21T11:54:01;95469.66;;;23.99;68.20
57606;BME280;43430;48.204;11.556;2023-05-21T11:56:27;95477.53;;;24.13;72.04
57606;BME280;43430;48.204;11.556;2023-05-21T11:58:53;95472.63;;;24.15;62.89
57606;BME280;43430;48.204;11.556;2023-05-21T12:01:21;95470.84;;;24.28;70.57
57606;BME280;43430;48.204;11.556;2023-05-21T12:03:47;95476.84;;;24.42;65.25
57606;BME280;43430;48.204;11.556;2023-05-21T12:06:12;95473.03;;;24.43;58.13
57606;BME280;43430;48.204;11.556;2023-05-21T12:08:38;95468.25;;;24.57;60.44
57606;BME280;43430;48.204;11.556;2023-05-21T12:11:03;95469.31;;;24.65;57.37
57606;BME280;43430;48.204;11.556;2023-05-21T12:13:28;95468.09;;;24.54;55.58
57606;BME280;43430;48.204;11.556;2023-05-21T12:15:54;95467.78;;;24.55;57.94
57606;BME280;43430;48.204;11.556;2023-05-21T12:18:20;95473.00;;;24.60;53.15
57606;BME280;43430;48.204;11.556;2023-05-21T12:20:45;95468.53;;;24.65;57.08
57606;BME280;43430;48.204;11.556;2023-05-21T12:23:22;95465.75;;;24.82;60.29
57606;BME280;43430;48.204;11.556;2023-05-21T12:25:48;95459.66;;;24.94;52.27
57606;BME280;43430;48.204;11.556;2023-05-21T12:28:14;95461.56;;;24.93;50.59
57606;BME280;43430;48.204;11.556;2023-05-21T12:30:39;95457.75;;;24.94;51.30
57606;BME280;43430;48.204;11.556;2023-05-21T12:33:05;95455.78;;;25.03;57.88
57606;BME280;43430;48.204;11.556;2023-05-21T12:35:31;95456.06;;;25.10;46.37
57606;BME280;43430;48.204;11.556;2023-05-21T12:37:56;95453.03;;;25.21;51.45
57606;BME280;43430;48.204;11.556;2023-05-21T12:40:34;95457.13;;;25.27;46.63
57606;BME280;43430;48.204;11.556;2023-05-21T12:43:01;95451.19;;;25.33;48.21
57606;BME280;43430;48.204;11.556;2023-05-21T12:45:27;95454.03;;;25.37;46.69
57606;BME280;43430;48.204;11.556;2023-05-21T12:47:53;95455.84;;;25.45;43.16
57606;BME280;43430;48.204;11.556;2023-05-21T12:50:20;95456.19;;;25.23;47.37
57606;BME280;43430;48.204;11.556;2023-05-21T12:52:46;95460.69;;;25.10;46.50
57606;BME280;43430;48.204;11.556;2023-05-21T12:55:15;95457.44;;;24.96;49.11
57606;BME280;43430;48.204;11.556;2023-05-21T12:57:41;95458.50;;;25.12;51.43
57606;BME280;43430;48.204;11.556;2023-05-21T13:00:08;95454.97;;;25.12;44.18
57606;BME280;43430;48.204;11.556;2023-05-21T13:02:41;95458.50;;;25.03;43.45
57606;BME280;43430;48.204;11.556;2023-05-21T13:05:14;95452.75;;;25.14;48.15
57606;BME280;43430;48.204;11.556;2023-05-21T13:07:44;95455.72;;;25.21;45.63
57606;BME280;43430;48.204;11.556;2023-05-21T13:10:11;95458.81;;;25.31;49.16
57606;BME280;43430;48.204;11.556;2023-05-21T13:12:37;95449.41;;;25.38;47.53